logo tempoitalia

Diretta Meteo Oujda, Maroccolunedì 31 agosto ore 06:00

Mappa
Sereno 22 °C Coperto 24 Ore: T.min 18 T.max 34
Ponente Nord Km/h 5.5 Punto di rugiada: 21 °C Umidità: 94% Visibilità: 6 Km
Il sole sorge alle: 06:39 Il sole tramonta alle: 19:36
31 Agosto 2026 06:00 tempo osservato: Coperto Coperto 22 94 1019 vento: Nord N 5.5
31 Agosto 2026 05:30 tempo osservato: Poco Nuvoloso Poco Nuvoloso 22 94 1019 vento: Nord NO 9.3
31 Agosto 2026 05:00 tempo osservato: Poco Nuvoloso Poco Nuvoloso 21 94 1019 vento: Nord N 7.4
31 Agosto 2026 04:30 tempo osservato: Sereno Sereno 21 88 1019 vento: Nord N 5.5
31 Agosto 2026 04:00 tempo osservato: Sereno Sereno 21 88 1019 vento: Nord N 1.8
31 Agosto 2026 03:30 tempo osservato: Sereno Sereno 21 88 1019 vento: Nord O/SO 7.4
31 Agosto 2026 03:00 tempo osservato: Sereno Sereno 22 83 1019 vento: Nord N 5.5
31 Agosto 2026 02:30 tempo osservato: Sereno Sereno 23 83 1018 vento: Nord N 3.7
31 Agosto 2026 02:00 tempo osservato: Sereno Sereno 23 78 1018 vento: Nord N 1.8
31 Agosto 2026 01:30 tempo osservato: Sereno Sereno 23 83 1019 vento: Nord N 3.7
31 Agosto 2026 01:00 tempo osservato: Sereno Sereno 24 78 1019 vento: Nord N 11.1
31 Agosto 2026 00:30 tempo osservato: Sereno Sereno 24 78 1019 vento: Nord N/NE 9.3
31 Agosto 2026 00:00 tempo osservato: Sereno Sereno 24 78 1020 vento: Nord S/SE 11.1
30 Agosto 2026 23:30 tempo osservato: Sereno Sereno 24 78 1020 vento: Nord O/NO 13
30 Agosto 2026 23:00 tempo osservato: Sereno Sereno 24 78 1020 vento: Nord N 3.7
30 Agosto 2026 22:30 tempo osservato: Sereno Sereno 25 73 1019 vento: Nord N 5.5
30 Agosto 2026 22:00 tempo osservato: Sereno Sereno 24 78 1019 vento: Nord N 7.4
30 Agosto 2026 21:30 tempo osservato: Poco Nuvoloso Poco Nuvoloso 24 78 1019 vento: Nord N 11.1
30 Agosto 2026 21:00 tempo osservato: Poco Nuvoloso Poco Nuvoloso 24 78 1019 vento: Nord N 14.8
30 Agosto 2026 20:30 tempo osservato: Poco Nuvoloso Poco Nuvoloso 25 73 1018 vento: Nord N 20.3
30 Agosto 2026 20:00 tempo osservato: Poco Nuvoloso Poco Nuvoloso 25 73 1018 vento: Nord N 16.7
30 Agosto 2026 19:30 tempo osservato: Poco Nuvoloso Poco Nuvoloso 25 73 1018 vento: Nord N 24
30 Agosto 2026 19:00 tempo osservato: Poco Nuvoloso Poco Nuvoloso 26 69 1017 vento: Nord N 22.2
30 Agosto 2026 18:30 tempo osservato: Sereno Sereno 27 65 1017 vento: Nord N 24
30 Agosto 2026 18:00 tempo osservato: Sereno Sereno 28 61 1017 vento: Nord N 25.9
30 Agosto 2026 17:30 tempo osservato: Sereno Sereno 29 58 1017 vento: Nord N 29.6
30 Agosto 2026 17:00 tempo osservato: Sereno Sereno 30 55 1017 vento: Nord N 31.5
30 Agosto 2026 16:30 tempo osservato: Sereno Sereno 31 52 1017 vento: Nord N 31.5
30 Agosto 2026 16:00 tempo osservato: Sereno Sereno 32 46 1017 vento: Nord N 27.8
30 Agosto 2026 15:30 tempo osservato: Sereno Sereno 32 46 1017 vento: Nord N 25.9
30 Agosto 2026 15:00 tempo osservato: Sereno Sereno 33 43 1017 vento: Nord N 22.2
30 Agosto 2026 14:30 tempo osservato: Sereno Sereno 34 38 1017 vento: Nord N 13
30 Agosto 2026 14:00 tempo osservato: Sereno Sereno 33 41 1018 vento: Nord NE 16.7
30 Agosto 2026 13:30 tempo osservato: Sereno Sereno 33 36 1018 vento: Nord N 13
30 Agosto 2026 13:00 tempo osservato: Sereno Sereno 33 33 1018 vento: Nord NE 11.1
30 Agosto 2026 12:30 tempo osservato: Poco Nuvoloso Poco Nuvoloso 31 35 1019 vento: Nord E/NE 11.1
30 Agosto 2026 12:00 tempo osservato: Poco Nuvoloso Poco Nuvoloso 30 37 1019 vento: Nord NE 11.1
30 Agosto 2026 11:30 tempo osservato: Poco Nuvoloso Poco Nuvoloso 29 42 1019 vento: Nord N 5.5
30 Agosto 2026 11:00 tempo osservato: Poco Nuvoloso Poco Nuvoloso 28 48 1020 vento: Nord N 5.5
30 Agosto 2026 10:30 tempo osservato: Poco Nuvoloso Poco Nuvoloso 27 50 1019 vento: Nord N 5.5
30 Agosto 2026 10:00 tempo osservato: Poco Nuvoloso Poco Nuvoloso 26 50 1020 vento: Nord N 3.7
30 Agosto 2026 09:30 tempo osservato: Sereno Sereno 24 57 1019 vento: Nord N 5.5
30 Agosto 2026 09:00 tempo osservato: Sereno Sereno 24 57 1020 vento: Nord N 3.7
30 Agosto 2026 08:30 tempo osservato: Sereno Sereno 22 60 1019 vento: Nord N 1.8
30 Agosto 2026 08:00 tempo osservato: Sereno Sereno 21 56 1019 vento: Nord N 1.8
30 Agosto 2026 07:30 tempo osservato: Poco Nuvoloso Poco Nuvoloso 19 59 1019 vento: Nord N 1.8
30 Agosto 2026 07:00 tempo osservato: Poco Nuvoloso Poco Nuvoloso 18 59 1019 vento: Nord N 3.7